Decoded Metar for KNBC (BEAUFORT in SC, USA) (IATA:NBC) | Meteo·Mobile Aviation Weather
aviador You're here:

KNBC Decoded Metar

BEAUFORT in SC, USA
Report Time2018-11-20 13:56:00
UTC Time2018-11-20 15:16:05
Flight Rules Old
Wind250° at 04 kt
W.Decomp.*RWY 23: 3.6 kt HW 1.7 kt RCW
RWY 32: 1.7 kt HW 3.6 kt LCW
RWY 18: 1.0 kt HW 3.9 kt RCW
W.Rank250° ranks 14
Current wind is below 250° avg. (7.2)
Visibility9999 m
Phenomena:N/A
Clouds:Broken 090 Hf
Broken 110 Hf
Expected CloudBase > 1,200 ft AGL from Temp-Dew spread
Ceiling9,000 ft
Temp15°C (ISA 0)
Dew Point12°C (82% RH)
AAT14.2°C
QNH1019 hPa
Density Alt30 ft
Elevation37 ft
Report Wrong Elevation
Raw Report
KNBC 201356Z 25004KT 10SM BKN090 BKN110 15/12 A3010 RMK SLP191
T01500122=

Extra information for KNBC:More info

Metar Taf Metar & Taf Last 4 Metars F.Rules Stats Wind Profile Meteogram Temp Stats Airport Information Weather charts Add Link Nearby VenuesMetar ALERT Operation Metar Decoded Social comments

AIRNAV info for KNBC